sensor_id;sensor_type;location;lat;lon;timestamp;P1;durP1;ratioP1;P2;durP2;ratioP2
25509;SDS011;13413;52.336;21.200;2023-05-16T00:05:35;9.70;;;6.80;;
25509;SDS011;13413;52.336;21.200;2023-05-16T00:08:29;9.40;;;7.40;;
25509;SDS011;13413;52.336;21.200;2023-05-16T00:11:24;9.40;;;7.30;;
25509;SDS011;13413;52.336;21.200;2023-05-16T00:14:17;8.30;;;7.00;;
25509;SDS011;13413;52.336;21.200;2023-05-16T00:17:12;8.60;;;7.10;;
25509;SDS011;13413;52.336;21.200;2023-05-16T00:20:06;9.80;;;7.10;;
25509;SDS011;13413;52.336;21.200;2023-05-16T00:23:02;7.90;;;7.10;;
25509;SDS011;13413;52.336;21.200;2023-05-16T00:25:55;8.20;;;7.30;;
25509;SDS011;13413;52.336;21.200;2023-05-16T00:28:50;9.40;;;7.00;;
25509;SDS011;13413;52.336;21.200;2023-05-16T00:31:44;8.10;;;6.70;;
25509;SDS011;13413;52.336;21.200;2023-05-16T00:34:40;10.70;;;7.20;;
25509;SDS011;13413;52.336;21.200;2023-05-16T00:37:34;8.10;;;6.80;;
25509;SDS011;13413;52.336;21.200;2023-05-16T00:40:29;8.80;;;8.00;;
25509;SDS011;13413;52.336;21.200;2023-05-16T00:43:23;8.90;;;8.00;;
25509;SDS011;13413;52.336;21.200;2023-05-16T00:46:18;12.40;;;7.80;;
25509;SDS011;13413;52.336;21.200;2023-05-16T00:49:12;9.40;;;8.40;;
25509;SDS011;13413;52.336;21.200;2023-05-16T00:52:06;10.40;;;8.40;;
25509;SDS011;13413;52.336;21.200;2023-05-16T00:55:00;12.90;;;9.20;;
25509;SDS011;13413;52.336;21.200;2023-05-16T00:57:54;10.30;;;8.80;;
25509;SDS011;13413;52.336;21.200;2023-05-16T01:00:49;9.80;;;8.70;;
25509;SDS011;13413;52.336;21.200;2023-05-16T01:03:46;10.60;;;9.60;;
25509;SDS011;13413;52.336;21.200;2023-05-16T01:06:40;9.80;;;8.80;;
25509;SDS011;13413;52.336;21.200;2023-05-16T01:09:35;10.10;;;9.20;;
25509;SDS011;13413;52.336;21.200;2023-05-16T01:12:31;10.70;;;9.60;;
25509;SDS011;13413;52.336;21.200;2023-05-16T01:15:43;12.60;;;11.20;;
25509;SDS011;13413;52.336;21.200;2023-05-16T01:18:46;11.50;;;10.30;;
25509;SDS011;13413;52.336;21.200;2023-05-16T01:21:52;16.40;;;10.60;;
25509;SDS011;13413;52.336;21.200;2023-05-16T01:27:53;13.10;;;10.80;;
25509;SDS011;13413;52.336;21.200;2023-05-16T01:30:51;11.40;;;10.30;;
25509;SDS011;13413;52.336;21.200;2023-05-16T01:33:46;11.90;;;10.60;;
25509;SDS011;13413;52.336;21.200;2023-05-16T01:36:42;11.90;;;10.60;;
25509;SDS011;13413;52.336;21.200;2023-05-16T01:39:43;14.30;;;11.00;;
25509;SDS011;13413;52.336;21.200;2023-05-16T01:42:43;15.30;;;11.50;;
25509;SDS011;13413;52.336;21.200;2023-05-16T01:45:44;14.00;;;11.60;;
25509;SDS011;13413;52.336;21.200;2023-05-16T01:48:45;12.70;;;11.40;;
25509;SDS011;13413;52.336;21.200;2023-05-16T01:51:48;14.50;;;11.70;;
25509;SDS011;13413;52.336;21.200;2023-05-16T01:54:47;13.70;;;12.30;;
25509;SDS011;13413;52.336;21.200;2023-05-16T01:57:43;13.60;;;12.10;;
25509;SDS011;13413;52.336;21.200;2023-05-16T02:00:39;13.00;;;11.60;;
25509;SDS011;13413;52.336;21.200;2023-05-16T02:03:34;13.20;;;11.50;;
25509;SDS011;13413;52.336;21.200;2023-05-16T02:09:21;12.50;;;11.30;;
25509;SDS011;13413;52.336;21.200;2023-05-16T02:12:16;14.30;;;12.80;;
25509;SDS011;13413;52.336;21.200;2023-05-16T02:15:10;14.90;;;13.20;;
25509;SDS011;13413;52.336;21.200;2023-05-16T02:25:49;14.10;;;12.70;;
25509;SDS011;13413;52.336;21.200;2023-05-16T02:28:43;15.60;;;14.00;;
25509;SDS011;13413;52.336;21.200;2023-05-16T02:31:37;14.60;;;13.20;;
25509;SDS011;13413;52.336;21.200;2023-05-16T02:34:31;15.10;;;13.70;;
25509;SDS011;13413;52.336;21.200;2023-05-16T02:37:25;14.80;;;13.30;;
25509;SDS011;13413;52.336;21.200;2023-05-16T02:40:19;18.50;;;13.00;;
25509;SDS011;13413;52.336;21.200;2023-05-16T02:43:13;15.10;;;13.50;;
25509;SDS011;13413;52.336;21.200;2023-05-16T02:46:20;15.40;;;13.60;;
25509;SDS011;13413;52.336;21.200;2023-05-16T02:49:17;13.90;;;12.50;;
25509;SDS011;13413;52.336;21.200;2023-05-16T02:52:14;13.50;;;12.20;;
25509;SDS011;13413;52.336;21.200;2023-05-16T02:55:09;15.20;;;13.60;;
25509;SDS011;13413;52.336;21.200;2023-05-16T02:58:03;15.20;;;13.60;;
25509;SDS011;13413;52.336;21.200;2023-05-16T03:00:57;16.20;;;14.50;;
25509;SDS011;13413;52.336;21.200;2023-05-16T03:03:51;15.10;;;13.20;;
25509;SDS011;13413;52.336;21.200;2023-05-16T03:06:45;15.80;;;13.20;;
25509;SDS011;13413;52.336;21.200;2023-05-16T03:09:39;17.00;;;14.00;;
25509;SDS011;13413;52.336;21.200;2023-05-16T03:12:33;19.00;;;14.00;;
25509;SDS011;13413;52.336;21.200;2023-05-16T03:15:27;15.50;;;13.60;;
25509;SDS011;13413;52.336;21.200;2023-05-16T03:18:21;15.00;;;13.40;;
25509;SDS011;13413;52.336;21.200;2023-05-16T03:24:09;15.60;;;13.90;;
25509;SDS011;13413;52.336;21.200;2023-05-16T03:27:04;14.90;;;13.10;;
25509;SDS011;13413;52.336;21.200;2023-05-16T03:29:58;14.80;;;13.30;;
25509;SDS011;13413;52.336;21.200;2023-05-16T03:32:52;14.50;;;13.00;;
25509;SDS011;13413;52.336;21.200;2023-05-16T03:35:46;14.60;;;13.20;;
25509;SDS011;13413;52.336;21.200;2023-05-16T03:38:40;15.10;;;13.20;;
25509;SDS011;13413;52.336;21.200;2023-05-16T03:41:34;15.00;;;13.40;;
25509;SDS011;13413;52.336;21.200;2023-05-16T03:44:28;17.30;;;13.80;;
25509;SDS011;13413;52.336;21.200;2023-05-16T03:47:22;13.80;;;12.30;;
25509;SDS011;13413;52.336;21.200;2023-05-16T03:50:16;14.80;;;12.80;;
25509;SDS011;13413;52.336;21.200;2023-05-16T03:53:10;15.30;;;13.70;;
25509;SDS011;13413;52.336;21.200;2023-05-16T03:56:05;16.30;;;13.80;;
25509;SDS011;13413;52.336;21.200;2023-05-16T03:58:59;17.00;;;14.00;;
25509;SDS011;13413;52.336;21.200;2023-05-16T04:01:53;14.20;;;12.80;;
25509;SDS011;13413;52.336;21.200;2023-05-16T04:04:47;15.00;;;13.40;;
25509;SDS011;13413;52.336;21.200;2023-05-16T04:07:41;15.20;;;13.00;;
25509;SDS011;13413;52.336;21.200;2023-05-16T04:10:35;14.80;;;12.60;;
25509;SDS011;13413;52.336;21.200;2023-05-16T04:13:29;14.90;;;13.50;;
25509;SDS011;13413;52.336;21.200;2023-05-16T04:16:23;14.20;;;12.60;;
25509;SDS011;13413;52.336;21.200;2023-05-16T04:19:18;17.10;;;13.10;;
25509;SDS011;13413;52.336;21.200;2023-05-16T04:22:11;14.40;;;13.00;;
25509;SDS011;13413;52.336;21.200;2023-05-16T04:25:06;14.20;;;11.90;;
25509;SDS011;13413;52.336;21.200;2023-05-16T04:28:00;13.90;;;12.40;;
25509;SDS011;13413;52.336;21.200;2023-05-16T04:30:54;14.20;;;12.70;;
25509;SDS011;13413;52.336;21.200;2023-05-16T04:33:48;14.60;;;13.10;;
25509;SDS011;13413;52.336;21.200;2023-05-16T04:36:42;14.70;;;11.90;;
25509;SDS011;13413;52.336;21.200;2023-05-16T04:45:11;14.80;;;13.30;;
25509;SDS011;13413;52.336;21.200;2023-05-16T04:48:05;13.40;;;12.10;;
25509;SDS011;13413;52.336;21.200;2023-05-16T04:50:59;15.20;;;12.30;;
25509;SDS011;13413;52.336;21.200;2023-05-16T04:53:53;18.50;;;13.10;;
25509;SDS011;13413;52.336;21.200;2023-05-16T04:56:48;17.60;;;14.20;;
25509;SDS011;13413;52.336;21.200;2023-05-16T04:59:42;14.90;;;13.40;;
25509;SDS011;13413;52.336;21.200;2023-05-16T05:02:36;12.70;;;11.30;;
25509;SDS011;13413;52.336;21.200;2023-05-16T05:05:30;13.70;;;12.50;;
25509;SDS011;13413;52.336;21.200;2023-05-16T05:08:24;12.70;;;11.50;;
25509;SDS011;13413;52.336;21.200;2023-05-16T05:11:18;14.00;;;12.60;;
25509;SDS011;13413;52.336;21.200;2023-05-16T05:14:12;14.30;;;12.60;;
25509;SDS011;13413;52.336;21.200;2023-05-16T05:17:06;12.60;;;11.00;;
25509;SDS011;13413;52.336;21.200;2023-05-16T05:20:00;13.00;;;11.70;;
25509;SDS011;13413;52.336;21.200;2023-05-16T05:22:54;13.40;;;12.10;;
25509;SDS011;13413;52.336;21.200;2023-05-16T05:25:48;13.20;;;11.90;;
25509;SDS011;13413;52.336;21.200;2023-05-16T05:28:42;12.70;;;11.40;;
25509;SDS011;13413;52.336;21.200;2023-05-16T05:31:36;13.20;;;11.80;;
25509;SDS011;13413;52.336;21.200;2023-05-16T05:34:30;13.30;;;12.00;;
25509;SDS011;13413;52.336;21.200;2023-05-16T05:37:24;12.50;;;11.20;;
25509;SDS011;13413;52.336;21.200;2023-05-16T05:40:18;14.20;;;12.00;;
25509;SDS011;13413;52.336;21.200;2023-05-16T05:43:12;13.20;;;12.00;;
25509;SDS011;13413;52.336;21.200;2023-05-16T05:46:07;15.40;;;12.50;;
25509;SDS011;13413;52.336;21.200;2023-05-16T05:49:01;14.80;;;12.90;;
25509;SDS011;13413;52.336;21.200;2023-05-16T05:51:55;14.00;;;12.60;;
25509;SDS011;13413;52.336;21.200;2023-05-16T05:54:49;18.50;;;12.00;;
25509;SDS011;13413;52.336;21.200;2023-05-16T06:00:54;15.90;;;14.00;;
25509;SDS011;13413;52.336;21.200;2023-05-16T06:03:48;14.60;;;13.10;;
25509;SDS011;13413;52.336;21.200;2023-05-16T06:06:42;16.90;;;14.60;;
25509;SDS011;13413;52.336;21.200;2023-05-16T06:09:38;14.60;;;13.00;;
25509;SDS011;13413;52.336;21.200;2023-05-16T06:12:32;17.50;;;13.90;;
25509;SDS011;13413;52.336;21.200;2023-05-16T06:15:26;13.90;;;12.40;;
25509;SDS011;13413;52.336;21.200;2023-05-16T06:18:20;13.90;;;11.00;;
25509;SDS011;13413;52.336;21.200;2023-05-16T06:21:14;13.30;;;11.70;;
25509;SDS011;13413;52.336;21.200;2023-05-16T06:24:08;12.40;;;11.20;;
25509;SDS011;13413;52.336;21.200;2023-05-16T06:27:02;16.10;;;12.50;;
25509;SDS011;13413;52.336;21.200;2023-05-16T06:35:56;13.70;;;11.70;;
25509;SDS011;13413;52.336;21.200;2023-05-16T06:38:50;13.20;;;11.40;;
25509;SDS011;13413;52.336;21.200;2023-05-16T06:41:45;13.70;;;12.30;;
25509;SDS011;13413;52.336;21.200;2023-05-16T06:44:38;14.60;;;11.50;;
25509;SDS011;13413;52.336;21.200;2023-05-16T06:47:32;15.20;;;11.70;;
25509;SDS011;13413;52.336;21.200;2023-05-16T06:50:26;14.00;;;12.60;;
25509;SDS011;13413;52.336;21.200;2023-05-16T06:53:20;16.50;;;12.70;;
25509;SDS011;13413;52.336;21.200;2023-05-16T07:04:57;13.70;;;12.30;;
25509;SDS011;13413;52.336;21.200;2023-05-16T07:07:51;13.90;;;12.00;;
25509;SDS011;13413;52.336;21.200;2023-05-16T07:10:45;14.60;;;13.10;;
25509;SDS011;13413;52.336;21.200;2023-05-16T07:13:40;15.10;;;12.50;;
25509;SDS011;13413;52.336;21.200;2023-05-16T07:16:33;13.20;;;11.90;;
25509;SDS011;13413;52.336;21.200;2023-05-16T07:19:27;13.50;;;11.70;;
25509;SDS011;13413;52.336;21.200;2023-05-16T07:22:21;13.20;;;11.90;;
25509;SDS011;13413;52.336;21.200;2023-05-16T07:25:15;13.00;;;11.70;;
25509;SDS011;13413;52.336;21.200;2023-05-16T07:28:09;10.70;;;9.70;;
25509;SDS011;13413;52.336;21.200;2023-05-16T07:31:03;10.80;;;9.70;;
25509;SDS011;13413;52.336;21.200;2023-05-16T07:33:57;12.10;;;10.80;;
25509;SDS011;13413;52.336;21.200;2023-05-16T07:37:04;12.70;;;10.80;;
25509;SDS011;13413;52.336;21.200;2023-05-16T07:39:58;12.80;;;10.50;;
25509;SDS011;13413;52.336;21.200;2023-05-16T07:42:55;11.70;;;10.30;;
25509;SDS011;13413;52.336;21.200;2023-05-16T07:45:49;15.60;;;11.20;;
25509;SDS011;13413;52.336;21.200;2023-05-16T07:48:43;13.10;;;10.40;;
25509;SDS011;13413;52.336;21.200;2023-05-16T07:51:37;9.60;;;8.70;;
25509;SDS011;13413;52.336;21.200;2023-05-16T07:54:31;12.10;;;9.40;;
25509;SDS011;13413;52.336;21.200;2023-05-16T07:57:25;12.60;;;9.20;;
25509;SDS011;13413;52.336;21.200;2023-05-16T08:00:20;12.30;;;9.50;;
25509;SDS011;13413;52.336;21.200;2023-05-16T08:06:07;11.80;;;9.80;;
25509;SDS011;13413;52.336;21.200;2023-05-16T08:09:00;7.70;;;7.10;;
25509;SDS011;13413;52.336;21.200;2023-05-16T08:11:54;7.90;;;7.10;;
25509;SDS011;13413;52.336;21.200;2023-05-16T08:14:48;11.00;;;8.50;;
25509;SDS011;13413;52.336;21.200;2023-05-16T08:17:42;8.70;;;7.40;;
25509;SDS011;13413;52.336;21.200;2023-05-16T08:20:36;7.60;;;6.90;;
25509;SDS011;13413;52.336;21.200;2023-05-16T08:23:31;9.60;;;6.70;;
25509;SDS011;13413;52.336;21.200;2023-05-16T08:26:25;9.50;;;7.10;;
25509;SDS011;13413;52.336;21.200;2023-05-16T08:29:18;7.30;;;6.60;;
25509;SDS011;13413;52.336;21.200;2023-05-16T08:32:12;8.20;;;6.10;;
25509;SDS011;13413;52.336;21.200;2023-05-16T08:35:07;6.10;;;5.60;;
25509;SDS011;13413;52.336;21.200;2023-05-16T08:40:53;8.60;;;6.40;;
25509;SDS011;13413;52.336;21.200;2023-05-16T08:43:47;5.90;;;5.40;;
25509;SDS011;13413;52.336;21.200;2023-05-16T08:46:41;8.50;;;6.30;;
25509;SDS011;13413;52.336;21.200;2023-05-16T08:49:41;7.40;;;6.70;;
25509;SDS011;13413;52.336;21.200;2023-05-16T08:52:38;7.90;;;6.10;;
25509;SDS011;13413;52.336;21.200;2023-05-16T08:55:35;8.30;;;6.30;;
25509;SDS011;13413;52.336;21.200;2023-05-16T08:58:32;7.10;;;6.40;;
25509;SDS011;13413;52.336;21.200;2023-05-16T09:01:27;6.70;;;5.50;;
25509;SDS011;13413;52.336;21.200;2023-05-16T09:04:22;6.50;;;5.90;;
25509;SDS011;13413;52.336;21.200;2023-05-16T09:10:10;5.20;;;4.30;;
25509;SDS011;13413;52.336;21.200;2023-05-16T09:13:04;6.20;;;4.30;;
25509;SDS011;13413;52.336;21.200;2023-05-16T09:24:50;5.10;;;4.40;;
25509;SDS011;13413;52.336;21.200;2023-05-16T09:27:46;4.80;;;4.10;;
25509;SDS011;13413;52.336;21.200;2023-05-16T09:30:44;5.30;;;4.30;;
25509;SDS011;13413;52.336;21.200;2023-05-16T09:33:40;4.50;;;4.10;;
25509;SDS011;13413;52.336;21.200;2023-05-16T09:36:34;4.90;;;3.60;;
25509;SDS011;13413;52.336;21.200;2023-05-16T09:39:28;4.20;;;3.80;;
25509;SDS011;13413;52.336;21.200;2023-05-16T09:42:23;5.60;;;4.10;;
25509;SDS011;13413;52.336;21.200;2023-05-16T09:45:18;3.70;;;3.40;;
25509;SDS011;13413;52.336;21.200;2023-05-16T09:48:12;8.30;;;4.20;;
25509;SDS011;13413;52.336;21.200;2023-05-16T09:51:07;4.40;;;3.40;;
25509;SDS011;13413;52.336;21.200;2023-05-16T09:54:03;4.50;;;3.60;;
25509;SDS011;13413;52.336;21.200;2023-05-16T09:57:00;4.20;;;3.70;;
25509;SDS011;13413;52.336;21.200;2023-05-16T09:59:55;6.00;;;3.80;;
25509;SDS011;13413;52.336;21.200;2023-05-16T10:02:52;8.60;;;4.20;;
25509;SDS011;13413;52.336;21.200;2023-05-16T10:05:50;4.50;;;4.00;;
25509;SDS011;13413;52.336;21.200;2023-05-16T10:08:45;4.50;;;3.50;;
25509;SDS011;13413;52.336;21.200;2023-05-16T10:11:41;5.00;;;3.80;;
25509;SDS011;13413;52.336;21.200;2023-05-16T10:14:36;4.30;;;3.00;;
25509;SDS011;13413;52.336;21.200;2023-05-16T10:17:32;3.70;;;3.30;;
25509;SDS011;13413;52.336;21.200;2023-05-16T10:23:37;5.50;;;3.30;;
25509;SDS011;13413;52.336;21.200;2023-05-16T10:26:34;3.40;;;3.10;;
25509;SDS011;13413;52.336;21.200;2023-05-16T10:29:28;5.40;;;3.30;;
25509;SDS011;13413;52.336;21.200;2023-05-16T10:32:36;3.90;;;3.10;;
25509;SDS011;13413;52.336;21.200;2023-05-16T10:35:33;4.30;;;3.60;;
25509;SDS011;13413;52.336;21.200;2023-05-16T10:38:27;7.20;;;3.30;;
25509;SDS011;13413;52.336;21.200;2023-05-16T10:41:43;6.20;;;3.40;;
25509;SDS011;13413;52.336;21.200;2023-05-16T10:44:38;10.50;;;3.40;;
25509;SDS011;13413;52.336;21.200;2023-05-16T10:47:35;7.00;;;3.50;;
25509;SDS011;13413;52.336;21.200;2023-05-16T10:50:36;4.30;;;3.00;;
25509;SDS011;13413;52.336;21.200;2023-05-16T10:53:38;3.50;;;3.00;;
25509;SDS011;13413;52.336;21.200;2023-05-16T10:56:38;7.00;;;3.40;;
25509;SDS011;13413;52.336;21.200;2023-05-16T11:41:26;5.10;;;2.90;;
25509;SDS011;13413;52.336;21.200;2023-05-16T11:44:29;3.80;;;3.40;;
25509;SDS011;13413;52.336;21.200;2023-05-16T11:47:23;6.30;;;3.50;;
25509;SDS011;13413;52.336;21.200;2023-05-16T11:50:17;4.30;;;3.20;;
25509;SDS011;13413;52.336;21.200;2023-05-16T11:53:11;4.10;;;3.10;;
25509;SDS011;13413;52.336;21.200;2023-05-16T11:56:07;6.60;;;3.90;;
25509;SDS011;13413;52.336;21.200;2023-05-16T11:59:02;4.70;;;4.10;;
25509;SDS011;13413;52.336;21.200;2023-05-16T12:01:56;9.10;;;3.90;;
25509;SDS011;13413;52.336;21.200;2023-05-16T12:04:54;3.70;;;3.30;;
25509;SDS011;13413;52.336;21.200;2023-05-16T12:07:48;4.90;;;2.80;;
25509;SDS011;13413;52.336;21.200;2023-05-16T12:10:42;6.10;;;3.10;;
25509;SDS011;13413;52.336;21.200;2023-05-16T12:13:36;3.30;;;2.80;;
25509;SDS011;13413;52.336;21.200;2023-05-16T12:16:30;3.30;;;2.50;;
25509;SDS011;13413;52.336;21.200;2023-05-16T12:22:18;4.50;;;2.80;;
25509;SDS011;13413;52.336;21.200;2023-05-16T12:25:22;3.70;;;2.50;;
25509;SDS011;13413;52.336;21.200;2023-05-16T12:28:17;4.60;;;2.70;;
25509;SDS011;13413;52.336;21.200;2023-05-16T12:31:18;4.30;;;2.60;;
25509;SDS011;13413;52.336;21.200;2023-05-16T12:34:16;3.30;;;3.00;;
25509;SDS011;13413;52.336;21.200;2023-05-16T12:37:11;9.70;;;3.60;;
25509;SDS011;13413;52.336;21.200;2023-05-16T12:40:08;3.80;;;2.50;;
25509;SDS011;13413;52.336;21.200;2023-05-16T12:43:03;3.80;;;3.00;;
25509;SDS011;13413;52.336;21.200;2023-05-16T12:46:08;4.60;;;2.70;;
25509;SDS011;13413;52.336;21.200;2023-05-16T12:49:03;5.50;;;2.60;;
25509;SDS011;13413;52.336;21.200;2023-05-16T12:51:57;3.10;;;2.10;;
25509;SDS011;13413;52.336;21.200;2023-05-16T12:54:51;3.80;;;2.90;;
25509;SDS011;13413;52.336;21.200;2023-05-16T12:57:45;3.20;;;2.70;;
25509;SDS011;13413;52.336;21.200;2023-05-16T13:00:40;8.00;;;3.10;;
25509;SDS011;13413;52.336;21.200;2023-05-16T13:06:45;4.30;;;2.80;;
25509;SDS011;13413;52.336;21.200;2023-05-16T13:09:39;2.90;;;2.50;;
25509;SDS011;13413;52.336;21.200;2023-05-16T13:12:33;11.20;;;2.80;;
25509;SDS011;13413;52.336;21.200;2023-05-16T13:15:27;3.50;;;2.60;;
25509;SDS011;13413;52.336;21.200;2023-05-16T13:18:23;3.50;;;2.80;;
25509;SDS011;13413;52.336;21.200;2023-05-16T13:21:18;5.50;;;2.70;;
25509;SDS011;13413;52.336;21.200;2023-05-16T13:24:12;3.90;;;3.20;;
25509;SDS011;13413;52.336;21.200;2023-05-16T13:27:06;3.90;;;2.90;;
25509;SDS011;13413;52.336;21.200;2023-05-16T13:30:00;7.80;;;3.10;;
25509;SDS011;13413;52.336;21.200;2023-05-16T13:32:55;3.40;;;3.10;;
25509;SDS011;13413;52.336;21.200;2023-05-16T13:35:49;3.20;;;2.90;;
25509;SDS011;13413;52.336;21.200;2023-05-16T13:38:43;4.20;;;3.20;;
25509;SDS011;13413;52.336;21.200;2023-05-16T13:41:37;3.90;;;3.00;;
25509;SDS011;13413;52.336;21.200;2023-05-16T13:44:31;6.50;;;2.40;;
25509;SDS011;13413;52.336;21.200;2023-05-16T13:47:25;2.80;;;2.60;;
25509;SDS011;13413;52.336;21.200;2023-05-16T13:50:18;5.10;;;2.70;;
25509;SDS011;13413;52.336;21.200;2023-05-16T13:53:12;7.50;;;3.00;;
25509;SDS011;13413;52.336;21.200;2023-05-16T14:05:19;4.80;;;2.20;;
25509;SDS011;13413;52.336;21.200;2023-05-16T14:08:13;3.20;;;2.20;;
25509;SDS011;13413;52.336;21.200;2023-05-16T14:11:08;3.60;;;2.50;;
25509;SDS011;13413;52.336;21.200;2023-05-16T14:14:01;3.80;;;2.40;;
25509;SDS011;13413;52.336;21.200;2023-05-16T14:16:55;3.50;;;2.80;;
25509;SDS011;13413;52.336;21.200;2023-05-16T14:19:49;4.20;;;2.60;;
25509;SDS011;13413;52.336;21.200;2023-05-16T14:22:43;6.10;;;3.20;;
25509;SDS011;13413;52.336;21.200;2023-05-16T14:25:37;4.40;;;3.40;;
25509;SDS011;13413;52.336;21.200;2023-05-16T14:28:31;2.30;;;2.20;;
25509;SDS011;13413;52.336;21.200;2023-05-16T14:31:25;10.30;;;3.80;;
25509;SDS011;13413;52.336;21.200;2023-05-16T14:34:19;8.80;;;6.20;;
25509;SDS011;13413;52.336;21.200;2023-05-16T14:37:13;8.90;;;3.40;;
25509;SDS011;13413;52.336;21.200;2023-05-16T14:40:08;3.70;;;3.10;;
25509;SDS011;13413;52.336;21.200;2023-05-16T14:43:02;12.20;;;2.80;;
25509;SDS011;13413;52.336;21.200;2023-05-16T14:45:56;3.60;;;2.90;;
25509;SDS011;13413;52.336;21.200;2023-05-16T14:48:51;4.90;;;2.80;;
25509;SDS011;13413;52.336;21.200;2023-05-16T14:51:44;2.80;;;2.60;;
25509;SDS011;13413;52.336;21.200;2023-05-16T14:54:38;3.60;;;3.20;;
25509;SDS011;13413;52.336;21.200;2023-05-16T14:57:32;2.90;;;2.70;;
25509;SDS011;13413;52.336;21.200;2023-05-16T15:00:26;4.80;;;3.10;;
25509;SDS011;13413;52.336;21.200;2023-05-16T15:03:21;2.60;;;2.40;;
25509;SDS011;13413;52.336;21.200;2023-05-16T15:06:14;2.60;;;2.40;;
25509;SDS011;13413;52.336;21.200;2023-05-16T15:09:09;4.80;;;2.70;;
25509;SDS011;13413;52.336;21.200;2023-05-16T15:12:03;2.80;;;2.50;;
25509;SDS011;13413;52.336;21.200;2023-05-16T15:14:58;5.40;;;2.70;;
25509;SDS011;13413;52.336;21.200;2023-05-16T15:17:52;2.60;;;2.40;;
25509;SDS011;13413;52.336;21.200;2023-05-16T15:20:46;6.50;;;3.30;;
25509;SDS011;13413;52.336;21.200;2023-05-16T15:23:41;2.90;;;2.60;;
25509;SDS011;13413;52.336;21.200;2023-05-16T15:26:35;3.00;;;2.40;;
25509;SDS011;13413;52.336;21.200;2023-05-16T15:29:30;4.20;;;2.50;;
25509;SDS011;13413;52.336;21.200;2023-05-16T15:32:23;2.70;;;2.50;;
25509;SDS011;13413;52.336;21.200;2023-05-16T15:35:18;3.40;;;2.30;;
25509;SDS011;13413;52.336;21.200;2023-05-16T15:38:11;2.40;;;2.20;;
25509;SDS011;13413;52.336;21.200;2023-05-16T15:41:05;7.10;;;2.50;;
25509;SDS011;13413;52.336;21.200;2023-05-16T15:43:59;4.30;;;2.90;;
25509;SDS011;13413;52.336;21.200;2023-05-16T15:46:53;2.50;;;2.30;;
25509;SDS011;13413;52.336;21.200;2023-05-16T15:52:43;3.00;;;2.70;;
25509;SDS011;13413;52.336;21.200;2023-05-16T15:55:37;3.50;;;2.50;;
25509;SDS011;13413;52.336;21.200;2023-05-16T15:58:31;2.70;;;2.50;;
25509;SDS011;13413;52.336;21.200;2023-05-16T16:01:26;3.30;;;2.60;;
25509;SDS011;13413;52.336;21.200;2023-05-16T16:04:19;2.90;;;2.40;;
25509;SDS011;13413;52.336;21.200;2023-05-16T16:07:14;3.90;;;2.70;;
25509;SDS011;13413;52.336;21.200;2023-05-16T16:10:08;4.90;;;2.90;;
25509;SDS011;13413;52.336;21.200;2023-05-16T16:24:19;3.90;;;2.70;;
25509;SDS011;13413;52.336;21.200;2023-05-16T16:27:14;6.90;;;3.00;;
25509;SDS011;13413;52.336;21.200;2023-05-16T16:30:09;5.80;;;2.90;;
25509;SDS011;13413;52.336;21.200;2023-05-16T16:33:04;5.30;;;2.30;;
25509;SDS011;13413;52.336;21.200;2023-05-16T16:39:05;5.20;;;2.70;;
25509;SDS011;13413;52.336;21.200;2023-05-16T16:42:00;4.10;;;3.30;;
25509;SDS011;13413;52.336;21.200;2023-05-16T16:44:53;4.30;;;3.20;;
25509;SDS011;13413;52.336;21.200;2023-05-16T16:47:47;8.80;;;4.00;;
25509;SDS011;13413;52.336;21.200;2023-05-16T16:50:42;4.60;;;4.20;;
25509;SDS011;13413;52.336;21.200;2023-05-16T16:53:35;8.50;;;3.40;;
25509;SDS011;13413;52.336;21.200;2023-05-16T16:56:29;10.00;;;4.20;;
25509;SDS011;13413;52.336;21.200;2023-05-16T16:59:23;2.80;;;2.60;;
25509;SDS011;13413;52.336;21.200;2023-05-16T17:02:18;4.00;;;3.00;;
25509;SDS011;13413;52.336;21.200;2023-05-16T17:05:11;7.90;;;3.40;;
25509;SDS011;13413;52.336;21.200;2023-05-16T17:08:05;4.10;;;3.00;;
25509;SDS011;13413;52.336;21.200;2023-05-16T17:11:00;4.40;;;3.50;;
25509;SDS011;13413;52.336;21.200;2023-05-16T17:13:55;3.50;;;2.70;;
25509;SDS011;13413;52.336;21.200;2023-05-16T17:16:49;8.30;;;3.00;;
25509;SDS011;13413;52.336;21.200;2023-05-16T17:19:44;6.20;;;3.90;;
25509;SDS011;13413;52.336;21.200;2023-05-16T17:22:39;3.60;;;3.20;;
25509;SDS011;13413;52.336;21.200;2023-05-16T17:25:33;6.70;;;3.70;;
25509;SDS011;13413;52.336;21.200;2023-05-16T17:28:26;5.00;;;3.30;;
25509;SDS011;13413;52.336;21.200;2023-05-16T17:31:21;5.80;;;4.10;;
25509;SDS011;13413;52.336;21.200;2023-05-16T17:34:14;9.10;;;5.30;;
25509;SDS011;13413;52.336;21.200;2023-05-16T17:37:09;5.30;;;3.50;;
25509;SDS011;13413;52.336;21.200;2023-05-16T17:40:03;4.10;;;3.80;;
25509;SDS011;13413;52.336;21.200;2023-05-16T17:43:00;8.70;;;5.00;;
25509;SDS011;13413;52.336;21.200;2023-05-16T17:45:54;9.40;;;4.50;;
25509;SDS011;13413;52.336;21.200;2023-05-16T17:48:47;5.60;;;4.90;;
25509;SDS011;13413;52.336;21.200;2023-05-16T17:51:45;6.60;;;4.10;;
25509;SDS011;13413;52.336;21.200;2023-05-16T17:54:42;4.10;;;3.70;;
25509;SDS011;13413;52.336;21.200;2023-05-16T17:57:37;6.90;;;4.50;;
25509;SDS011;13413;52.336;21.200;2023-05-16T18:00:30;5.00;;;3.80;;
25509;SDS011;13413;52.336;21.200;2023-05-16T18:03:25;8.50;;;5.00;;
25509;SDS011;13413;52.336;21.200;2023-05-16T18:06:19;6.30;;;5.10;;
25509;SDS011;13413;52.336;21.200;2023-05-16T18:09:16;6.80;;;5.10;;
25509;SDS011;13413;52.336;21.200;2023-05-16T18:15:08;7.20;;;5.80;;
25509;SDS011;13413;52.336;21.200;2023-05-16T18:18:01;12.10;;;7.70;;
25509;SDS011;13413;52.336;21.200;2023-05-16T18:20:56;10.20;;;7.50;;
25509;SDS011;13413;52.336;21.200;2023-05-16T18:23:51;9.20;;;7.50;;
25509;SDS011;13413;52.336;21.200;2023-05-16T18:26:45;15.80;;;7.50;;
25509;SDS011;13413;52.336;21.200;2023-05-16T18:29:39;8.90;;;7.30;;
25509;SDS011;13413;52.336;21.200;2023-05-16T18:41:02;6.70;;;6.00;;
25509;SDS011;13413;52.336;21.200;2023-05-16T18:43:57;8.70;;;7.60;;
25509;SDS011;13413;52.336;21.200;2023-05-16T18:46:51;8.60;;;6.80;;
25509;SDS011;13413;52.336;21.200;2023-05-16T18:49:44;12.20;;;9.30;;
25509;SDS011;13413;52.336;21.200;2023-05-16T18:52:38;9.60;;;8.50;;
25509;SDS011;13413;52.336;21.200;2023-05-16T18:55:32;11.80;;;7.60;;
25509;SDS011;13413;52.336;21.200;2023-05-16T18:58:26;10.10;;;7.80;;
25509;SDS011;13413;52.336;21.200;2023-05-16T19:01:20;14.20;;;8.60;;
25509;SDS011;13413;52.336;21.200;2023-05-16T19:04:15;12.00;;;8.90;;
25509;SDS011;13413;52.336;21.200;2023-05-16T19:07:09;13.10;;;11.30;;
25509;SDS011;13413;52.336;21.200;2023-05-16T19:10:05;10.90;;;8.90;;
25509;SDS011;13413;52.336;21.200;2023-05-16T19:13:01;9.10;;;7.30;;
25509;SDS011;13413;52.336;21.200;2023-05-16T19:15:55;12.10;;;9.60;;
25509;SDS011;13413;52.336;21.200;2023-05-16T19:18:48;25.00;;;16.80;;
25509;SDS011;13413;52.336;21.200;2023-05-16T19:21:42;62.80;;;48.60;;
25509;SDS011;13413;52.336;21.200;2023-05-16T19:24:37;97.60;;;74.10;;
25509;SDS011;13413;52.336;21.200;2023-05-16T19:27:30;112.00;;;82.60;;
25509;SDS011;13413;52.336;21.200;2023-05-16T19:30:24;129.40;;;93.40;;
25509;SDS011;13413;52.336;21.200;2023-05-16T19:33:19;228.20;;;153.50;;
25509;SDS011;13413;52.336;21.200;2023-05-16T19:36:13;247.70;;;163.50;;